Clutton, United Kingdom
Current Conditions -  °F | °C
As of 5:50 PM on Friday 21 Nov 2014 (Local Time) from EGGD Reporting Station
Light Rain Light Rain  
Wind Chill: 43°   Ceiling: 300
Heat Index: 48°   Visibility: 1.8mi
Dew Point: 46°   Wind: 13mph
Humidity: 93%   Direction: 110°ESE
Pressure: 29.85"   Gusts: NA
Location:  51.33°N, 2.54°W
Report Text: EGGD 211750Z 11011KT 3000 -RA BR BKN003 09/08 Q1011
Loading
Personal Weather Stations






























Interactive Weather Map New forecast layout! Learn more

10-Day Weather Forecast

Advertisements
Track Severe Weather on mobile